»·PEaware :: SWA863 KSLC-KSAN

SWA863 :: KSLC-KSAN

FLIGHT INFORMATION

Flight Status: Arrived
Operator:
Southwest Airlines
More flights by this operator :: More flights under this callsign
Pilot: Maximilliano F. (23467)
Aircraft: BOEING 737-800
(B738)
More flights by this aircraft type
Origin: KSLC Salt Lake City Intl
United States
Destination: KSAN San Diego Intl-Lindbergh
United States
More flights between these airports :: More routes between these airports
Route: +ARCHZ1 WINEN LAKRR Q73 LVELL LUCKI1
File this flight plan on PilotEdge
Remarks: RMK / SIMBRIEF
Altitude:
(Current/Filed)
34,000ft
Speed:
(Current/Filed)
454kts
Departed: 19-Oct-19 07:48 PM
Arrived: 19-Oct-19 09:17 PM
Distance/Time
Traveled:
544nm/1:28
Distance/Time
To Go:
Arrived

Flight Plot

Page will automatically refresh every two minutes.

Flight plan parsing failed; only flown route is shown


Map Options




Map Legend


Flown Route
Filed Route
Departure Airport
Arrival Airport
Navaid (VOR, NDB)
Fix

Horizontal Profiles

Position Reports

Time Latitude Longitude Heading Altitude Ground
Speed
19-Oct-19 19:14 40.785631 -111.978635 239 4235ft 0kts
19-Oct-19 19:16 40.785631 -111.978635 239 4235ft 0kts
19-Oct-19 19:17 40.785631 -111.978635 239 4235ft 0kts
19-Oct-19 19:18 40.785631 -111.978635 239 4235ft 0kts
19-Oct-19 19:19 40.785631 -111.978635 239 4235ft 0kts
19-Oct-19 19:20 40.785631 -111.978635 239 4235ft 0kts
19-Oct-19 19:21 40.785631 -111.978635 239 4235ft 0kts
19-Oct-19 19:22 40.785631 -111.978635 239 4235ft 0kts
19-Oct-19 19:23 40.785631 -111.978635 239 4235ft 0kts
19-Oct-19 19:24 40.785631 -111.978635 239 4235ft 0kts
19-Oct-19 19:25 40.785631 -111.978635 239 4235ft 0kts
19-Oct-19 19:26 40.785631 -111.978635 239 4235ft 0kts
19-Oct-19 19:27 40.785631 -111.978635 239 4235ft 0kts
19-Oct-19 19:28 40.785631 -111.978635 239 4235ft 0kts
19-Oct-19 19:29 40.785631 -111.978635 239 4235ft 0kts
19-Oct-19 19:30 40.785631 -111.978635 240 4235ft 0kts
19-Oct-19 19:31 40.785631 -111.978635 239 4235ft 0kts
19-Oct-19 19:32 40.785631 -111.978635 239 4235ft 0kts
19-Oct-19 19:33 40.785948 -111.978259 201 4235ft 2kts
19-Oct-19 19:34 40.786499 -111.978247 171 4235ft 0kts
19-Oct-19 19:34 40.786498 -111.978247 171 4235ft 0kts
19-Oct-19 19:36 40.786498 -111.978247 171 4235ft 0kts
19-Oct-19 19:37 40.786498 -111.978247 171 4235ft 0kts
19-Oct-19 19:37 40.786498 -111.978247 171 4235ft 0kts
19-Oct-19 19:38 40.786199 -111.977503 83 4235ft 4kts
19-Oct-19 19:40 40.786212 -111.977357 83 4234ft 0kts
19-Oct-19 19:40 40.786217 -111.977301 83 4235ft 2kts
19-Oct-19 19:41 40.783805 -111.976365 175 4234ft 15kts
19-Oct-19 19:42 40.779957 -111.975914 175 4235ft 15kts
19-Oct-19 19:43 40.775530 -111.974900 175 4235ft 17kts
19-Oct-19 19:44 40.774635 -111.974729 138 4235ft 0kts
19-Oct-19 19:45 40.774635 -111.974729 138 4235ft 0kts
19-Oct-19 19:46 40.774534 -111.973996 63 4235ft 8kts
19-Oct-19 19:47 40.785032 -111.974327 354 4235ft 135kts
19-Oct-19 19:48 40.831044 -111.995356 284 5989ft 205kts
19-Oct-19 19:49 40.837020 -112.075618 270 8904ft 216kts
19-Oct-19 19:50 40.814183 -112.139078 211 11727ft 256kts
19-Oct-19 19:51 40.747987 -112.185765 216 13979ft 295kts
19-Oct-19 19:52 40.670849 -112.239340 216 16876ft 321kts
19-Oct-19 19:53 40.590094 -112.293966 215 19990ft 334kts
19-Oct-19 19:54 40.498540 -112.339099 208 22564ft 364kts
19-Oct-19 19:55 40.398092 -112.379904 209 24882ft 386kts
19-Oct-19 19:56 40.294073 -112.422286 210 27388ft 396kts
19-Oct-19 19:57 40.187299 -112.466575 215 29669ft 398kts
19-Oct-19 19:58 40.089590 -112.533095 221 31756ft 397kts
19-Oct-19 19:59 39.992589 -112.601291 220 33878ft 399kts
19-Oct-19 20:00 39.892471 -112.671430 219 34011ft 415kts
19-Oct-19 20:01 39.790814 -112.742352 219 34012ft 414kts
19-Oct-19 20:02 39.688609 -112.812979 215 34012ft 422kts
19-Oct-19 20:03 39.574422 -112.861435 208 34003ft 436kts
19-Oct-19 20:04 39.458037 -112.907723 208 33992ft 436kts
19-Oct-19 20:05 39.341666 -112.953911 208 33992ft 437kts
19-Oct-19 20:06 39.225606 -112.999816 208 33993ft 439kts
19-Oct-19 20:07 39.108736 -113.045860 208 33992ft 438kts
19-Oct-19 20:08 39.046920 -113.070162 208 33995ft 440kts
19-Oct-19 20:09 38.929499 -113.116189 208 33965ft 441kts
19-Oct-19 20:10 38.813068 -113.161670 207 33941ft 441kts
19-Oct-19 20:11 38.695771 -113.207343 207 33942ft 444kts
19-Oct-19 20:12 38.577941 -113.253055 207 33939ft 443kts
19-Oct-19 20:13 38.460183 -113.298595 207 33939ft 445kts
19-Oct-19 20:14 38.342014 -113.344109 207 33943ft 444kts
19-Oct-19 20:15 38.223538 -113.389649 207 33959ft 447kts
19-Oct-19 20:16 38.104899 -113.435038 207 33959ft 446kts
19-Oct-19 20:17 37.987534 -113.479803 206 33960ft 447kts
19-Oct-19 20:18 37.885299 -113.512174 200 33958ft 457kts
19-Oct-19 20:19 37.760246 -113.541830 200 33969ft 456kts
19-Oct-19 20:20 37.636308 -113.571684 200 33971ft 456kts
19-Oct-19 20:21 37.511965 -113.601517 200 33972ft 456kts
19-Oct-19 20:22 37.387251 -113.631333 200 33973ft 456kts
19-Oct-19 20:23 37.263864 -113.660751 200 33977ft 457kts
19-Oct-19 20:24 37.139412 -113.690300 199 33958ft 456kts
19-Oct-19 20:25 37.017326 -113.726197 209 33955ft 443kts
19-Oct-19 20:26 36.903014 -113.782245 210 33952ft 443kts
19-Oct-19 20:27 36.788941 -113.837408 210 33945ft 442kts
19-Oct-19 20:28 36.674254 -113.892712 210 33945ft 443kts
19-Oct-19 20:29 36.562425 -113.953125 213 33963ft 439kts
19-Oct-19 20:30 36.450944 -114.014652 213 33988ft 439kts
19-Oct-19 20:31 36.345724 -114.086575 221 33967ft 430kts
19-Oct-19 20:32 36.244493 -114.164471 221 33943ft 428kts
19-Oct-19 20:33 36.142970 -114.242149 221 33919ft 429kts
19-Oct-19 20:34 36.040984 -114.318580 219 33916ft 431kts
19-Oct-19 20:35 35.937640 -114.393366 219 33914ft 433kts
19-Oct-19 20:36 35.834398 -114.468153 219 33900ft 434kts
19-Oct-19 20:37 35.730187 -114.543406 219 33899ft 436kts
19-Oct-19 20:38 35.625678 -114.618648 219 33899ft 438kts
19-Oct-19 20:39 35.521268 -114.693569 218 33912ft 440kts
19-Oct-19 20:40 35.415359 -114.769345 218 33886ft 442kts
19-Oct-19 20:41 35.309234 -114.845052 218 33866ft 443kts
19-Oct-19 20:42 35.202531 -114.920941 218 33866ft 445kts
19-Oct-19 20:43 35.095405 -114.996890 218 33870ft 446kts
19-Oct-19 20:44 34.987883 -115.072886 217 33884ft 448kts
19-Oct-19 20:45 34.879652 -115.149136 217 33885ft 450kts
19-Oct-19 20:46 34.770811 -115.225598 217 33916ft 452kts
19-Oct-19 20:47 34.662124 -115.301722 217 33930ft 454kts
19-Oct-19 20:48 34.552191 -115.378483 217 33931ft 457kts
19-Oct-19 20:49 34.441905 -115.455250 217 33932ft 460kts
19-Oct-19 20:50 34.330925 -115.532249 217 33933ft 462kts
19-Oct-19 20:51 34.219247 -115.609131 213 33931ft 467kts
19-Oct-19 20:52 34.098176 -115.667879 207 33914ft 475kts
19-Oct-19 20:53 33.975980 -115.725485 207 33907ft 473kts
19-Oct-19 20:54 33.853931 -115.784134 208 33897ft 472kts
19-Oct-19 20:55 33.731843 -115.843501 207 33086ft 483kts
19-Oct-19 20:56 33.606552 -115.901738 207 29715ft 469kts
19-Oct-19 20:57 33.502934 -115.980138 230 27065ft 425kts
19-Oct-19 20:58 33.433247 -116.085247 240 24699ft 391kts
19-Oct-19 20:59 33.372502 -116.190052 240 22070ft 374kts
19-Oct-19 21:00 33.294938 -116.274564 212 19614ft 391kts
19-Oct-19 21:01 33.201019 -116.330007 210 17392ft 366kts
19-Oct-19 21:02 33.111167 -116.382625 210 15255ft 366kts
19-Oct-19 21:03 33.018923 -116.436679 214 13436ft 360kts
19-Oct-19 21:04 32.945042 -116.505135 225 11698ft 324kts
19-Oct-19 21:05 32.879726 -116.571116 224 10387ft 289kts
19-Oct-19 21:06 32.821394 -116.629918 223 9382ft 283kts
19-Oct-19 21:07 32.766973 -116.694269 238 7992ft 279kts
19-Oct-19 21:08 32.729483 -116.771675 241 6566ft 262kts
19-Oct-19 21:09 32.698857 -116.844560 251 5602ft 233kts
19-Oct-19 21:10 32.677426 -116.916358 253 4514ft 231kts
19-Oct-19 21:11 32.684948 -116.990475 286 3362ft 221kts
19-Oct-19 21:12 32.700657 -117.054290 286 2420ft 176kts
19-Oct-19 21:13 32.713110 -117.105370 286 1418ft 155kts
19-Oct-19 21:14 32.725030 -117.154554 286 570ft 155kts
19-Oct-19 21:15 32.734793 -117.194713 285 21ft 43kts
19-Oct-19 21:16 32.735048 -117.198477 251 20ft 0kts
19-Oct-19 21:17 32.734523 -117.197934 106 21ft 12kts
19-Oct-19 21:18 32.733338 -117.194277 171 21ft 7kts
19-Oct-19 21:19 32.731892 -117.195764 247 21ft 4kts
19-Oct-19 21:20 32.731857 -117.195861 247 21ft 0kts
19-Oct-19 21:21 32.731857 -117.195861 247 21ft 0kts

Navigation Log

Ident Type
Flight plan parsing failed, navigation log unavailable